createdAt,value
2022-10-18T00:01:19.000Z,36.6
2022-10-18T00:03:45.000Z,35.08
2022-10-18T00:06:11.000Z,34.8
2022-10-18T00:08:37.000Z,35.3
2022-10-18T00:11:04.000Z,35.48
2022-10-18T00:13:29.000Z,34.35
2022-10-18T00:15:56.000Z,32.23
2022-10-18T00:18:26.000Z,31.85
2022-10-18T00:20:48.000Z,29.1
2022-10-18T00:23:14.000Z,24.5
2022-10-18T00:25:39.000Z,22.85
2022-10-18T00:28:07.000Z,22.1
2022-10-18T00:30:31.000Z,22.17
2022-10-18T00:32:57.000Z,21.3
2022-10-18T00:35:23.000Z,21.8
2022-10-18T00:37:48.000Z,21.68
2022-10-18T00:40:16.000Z,22.77
2022-10-18T00:42:41.000Z,22.9
2022-10-18T00:45:08.000Z,24.18
2022-10-18T00:47:34.000Z,24.75
2022-10-18T00:49:59.000Z,26.77
2022-10-18T00:52:25.000Z,28.17
2022-10-18T00:54:50.000Z,27.98
2022-10-18T00:57:17.000Z,28.57
2022-10-18T00:59:43.000Z,28.7
2022-10-18T01:02:09.000Z,29.72
2022-10-18T01:04:34.000Z,29.55
2022-10-18T01:07:00.000Z,29
2022-10-18T01:09:27.000Z,29.27
2022-10-18T01:11:52.000Z,29.87
2022-10-18T01:14:20.000Z,29.3
2022-10-18T01:16:47.000Z,30.95
2022-10-18T01:19:13.000Z,30.05
2022-10-18T01:21:39.000Z,32.33
2022-10-18T01:24:07.000Z,31
2022-10-18T01:26:34.000Z,28.2
2022-10-18T01:28:58.000Z,30.37
2022-10-18T01:31:25.000Z,29.5
2022-10-18T01:33:51.000Z,28.98
2022-10-18T01:36:17.000Z,30.48
2022-10-18T01:38:44.000Z,29.25
2022-10-18T01:41:09.000Z,30.25
2022-10-18T01:43:35.000Z,29.67
2022-10-18T01:46:00.000Z,30
2022-10-18T01:48:26.000Z,30
2022-10-18T01:50:53.000Z,29.48
2022-10-18T01:53:18.000Z,29.85
2022-10-18T01:55:48.000Z,28.1
2022-10-18T01:58:10.000Z,30.97
2022-10-18T02:00:36.000Z,30.9
2022-10-18T02:03:02.000Z,30.9
2022-10-18T02:05:28.000Z,34.03
2022-10-18T02:07:53.000Z,35.8
2022-10-18T02:10:21.000Z,40.07
2022-10-18T02:12:47.000Z,39.1
2022-10-18T02:15:13.000Z,42.03
2022-10-18T02:17:39.000Z,44.47
2022-10-18T02:22:32.000Z,41.8
2022-10-18T02:24:58.000Z,42.53
2022-10-18T02:27:23.000Z,45.03
2022-10-18T02:29:49.000Z,42.97
2022-10-18T02:32:15.000Z,43.78
2022-10-18T02:34:41.000Z,44.73
2022-10-18T02:37:06.000Z,45.23
2022-10-18T02:39:32.000Z,43.73
2022-10-18T02:41:59.000Z,42.97
2022-10-18T02:44:24.000Z,46.02
2022-10-18T02:46:51.000Z,46.58
2022-10-18T02:49:16.000Z,47
2022-10-18T02:51:41.000Z,50.7
2022-10-18T02:54:08.000Z,48.87
2022-10-18T02:58:59.000Z,53.92
2022-10-18T03:01:25.000Z,52.55
2022-10-18T03:03:51.000Z,54.83
2022-10-18T03:06:18.000Z,54.73
2022-10-18T03:08:43.000Z,56.2
2022-10-18T03:11:09.000Z,55.33
2022-10-18T03:13:36.000Z,57.3
2022-10-18T03:16:00.000Z,53.1
2022-10-18T03:18:31.000Z,55.07
2022-10-18T03:20:57.000Z,56.53
2022-10-18T03:23:23.000Z,58.83
2022-10-18T03:25:49.000Z,59.45
2022-10-18T03:28:16.000Z,58.07
2022-10-18T03:30:41.000Z,59.97
2022-10-18T03:33:08.000Z,58.45
2022-10-18T03:35:33.000Z,57.83
2022-10-18T03:37:59.000Z,56.8
2022-10-18T03:40:27.000Z,56.28
2022-10-18T03:42:51.000Z,52.9
2022-10-18T03:45:19.000Z,48.75
2022-10-18T03:47:44.000Z,48.63
2022-10-18T03:50:10.000Z,43.05
2022-10-18T03:52:35.000Z,44.57
2022-10-18T03:55:02.000Z,46.27
2022-10-18T03:57:28.000Z,44.08
2022-10-18T03:59:54.000Z,43.73
2022-10-18T04:02:19.000Z,42
2022-10-18T04:04:48.000Z,38.53
2022-10-18T04:07:13.000Z,36.13
2022-10-18T04:09:40.000Z,38.3
2022-10-18T04:12:07.000Z,32.7
2022-10-18T04:14:31.000Z,32.48
2022-10-18T04:16:56.000Z,32.25
2022-10-18T04:19:23.000Z,31.37
2022-10-18T04:21:49.000Z,30.93
2022-10-18T04:24:15.000Z,30.1
2022-10-18T04:26:42.000Z,28.4
2022-10-18T04:29:07.000Z,27.4
2022-10-18T04:31:33.000Z,27.27
2022-10-18T04:33:57.000Z,26.62
2022-10-18T04:36:23.000Z,28.2
2022-10-18T04:38:50.000Z,26.63
2022-10-18T04:41:14.000Z,27.53
2022-10-18T04:46:13.000Z,27
2022-10-18T04:48:39.000Z,28.3
2022-10-18T04:51:05.000Z,28.35
2022-10-18T04:53:31.000Z,27.35
2022-10-18T04:55:56.000Z,28.77
2022-10-18T04:58:23.000Z,27.93
2022-10-18T05:00:48.000Z,27.73
2022-10-18T05:03:14.000Z,27.62
2022-10-18T05:05:40.000Z,28.65
2022-10-18T05:08:08.000Z,29.12
2022-10-18T05:10:34.000Z,28.62
2022-10-18T05:12:59.000Z,30
2022-10-18T05:15:25.000Z,30.1
2022-10-18T05:17:51.000Z,28.95
2022-10-18T05:20:21.000Z,29.92
2022-10-18T05:22:45.000Z,28.87
2022-10-18T05:25:12.000Z,27.45
2022-10-18T05:27:36.000Z,27.47
2022-10-18T05:30:04.000Z,26.83
2022-10-18T05:32:30.000Z,26.3
2022-10-18T05:34:57.000Z,26.48
2022-10-18T05:37:23.000Z,27.1
2022-10-18T05:39:51.000Z,27.53
2022-10-18T05:42:17.000Z,27.32
2022-10-18T05:44:42.000Z,25.55
2022-10-18T05:47:09.000Z,26.15
2022-10-18T05:49:34.000Z,24.7
2022-10-18T05:52:00.000Z,24.87
2022-10-18T05:54:26.000Z,25.02
2022-10-18T05:56:51.000Z,24.47
2022-10-18T05:59:17.000Z,24.67
2022-10-18T06:01:44.000Z,24.57
2022-10-18T06:04:10.000Z,25.3
2022-10-18T06:06:35.000Z,25
2022-10-18T06:09:01.000Z,25.75
2022-10-18T06:11:27.000Z,26
2022-10-18T06:13:54.000Z,25.57
2022-10-18T06:16:19.000Z,25.35
2022-10-18T06:18:45.000Z,25.45
2022-10-18T06:21:12.000Z,25.52
2022-10-18T06:23:37.000Z,25.23
2022-10-18T06:26:08.000Z,25.12
2022-10-18T06:28:32.000Z,24.9
2022-10-18T06:30:57.000Z,24.85
2022-10-18T06:33:24.000Z,26.02
2022-10-18T06:35:50.000Z,25.57
2022-10-18T06:38:15.000Z,26.77
2022-10-18T06:40:42.000Z,27.32
2022-10-18T06:43:07.000Z,25.9
2022-10-18T06:45:33.000Z,23.6
2022-10-18T06:47:59.000Z,24.2
2022-10-18T06:50:25.000Z,24.37
2022-10-18T06:52:51.000Z,25.17
2022-10-18T06:55:18.000Z,24.45
2022-10-18T06:57:43.000Z,24.3
2022-10-18T07:00:16.000Z,25.02
2022-10-18T07:02:36.000Z,25.32
2022-10-18T07:05:02.000Z,25.25
2022-10-18T07:07:29.000Z,25.6
2022-10-18T07:09:53.000Z,27.27
2022-10-18T07:12:21.000Z,29
2022-10-18T07:14:46.000Z,30.48
2022-10-18T07:17:13.000Z,31.93
2022-10-18T07:19:38.000Z,32.03
2022-10-18T07:22:04.000Z,33.75
2022-10-18T07:26:59.000Z,32.45
2022-10-18T07:29:26.000Z,35.13
2022-10-18T07:31:53.000Z,34.73
2022-10-18T07:34:20.000Z,34.35
2022-10-18T07:36:49.000Z,31.93
2022-10-18T07:39:17.000Z,29.52
2022-10-18T07:41:42.000Z,28.38
2022-10-18T07:44:10.000Z,24.98
2022-10-18T07:46:35.000Z,23.83
2022-10-18T07:49:02.000Z,23.45
2022-10-18T07:51:28.000Z,23.85
2022-10-18T07:53:54.000Z,24.55
2022-10-18T07:56:20.000Z,25.33
2022-10-18T07:58:46.000Z,24.05
2022-10-18T08:01:12.000Z,27.07
2022-10-18T08:03:38.000Z,30.48
2022-10-18T08:06:12.000Z,32.5
2022-10-18T08:08:39.000Z,33.8
2022-10-18T08:11:06.000Z,34.5
2022-10-18T08:13:31.000Z,35.23
2022-10-18T08:15:57.000Z,32.9
2022-10-18T08:18:23.000Z,33.67
2022-10-18T08:20:49.000Z,34.33
2022-10-18T08:23:15.000Z,32.17
2022-10-18T08:25:41.000Z,34.9
2022-10-18T08:28:11.000Z,39.08
2022-10-18T08:30:36.000Z,40
2022-10-18T08:33:02.000Z,39.67
2022-10-18T08:37:56.000Z,46.55
2022-10-18T08:40:23.000Z,44.4
2022-10-18T08:42:53.000Z,43.75
2022-10-18T08:45:22.000Z,44.77
2022-10-18T08:47:49.000Z,46.55
2022-10-18T08:50:18.000Z,48.4
2022-10-18T08:52:50.000Z,49.27
2022-10-18T08:55:18.000Z,50
2022-10-18T09:02:49.000Z,48.13
2022-10-18T09:05:23.000Z,46.2
2022-10-18T09:07:49.000Z,46.9
2022-10-18T09:10:16.000Z,45.57
2022-10-18T09:12:41.000Z,45.12
2022-10-18T09:15:10.000Z,43.83
2022-10-18T09:17:33.000Z,41.88
2022-10-18T09:22:26.000Z,39.3
2022-10-18T09:24:51.000Z,35.6
2022-10-18T09:27:19.000Z,35.17
2022-10-18T09:32:19.000Z,32.35
2022-10-18T09:34:46.000Z,31.35
2022-10-18T09:37:13.000Z,32.4
2022-10-18T09:39:38.000Z,32.63
2022-10-18T09:42:04.000Z,30.68
2022-10-18T09:44:30.000Z,31.4
2022-10-18T09:47:05.000Z,30.23
2022-10-18T09:49:31.000Z,31.15
2022-10-18T09:51:59.000Z,30.53
2022-10-18T09:54:25.000Z,30.85
2022-10-18T09:56:52.000Z,31.2
2022-10-18T09:59:17.000Z,31.85
2022-10-18T10:01:43.000Z,33.23
2022-10-18T10:04:14.000Z,33.13
2022-10-18T10:06:47.000Z,32.67
2022-10-18T10:09:15.000Z,32.93
2022-10-18T10:11:49.000Z,34.2
2022-10-18T10:16:43.000Z,34.18
2022-10-18T10:19:21.000Z,34.13
2022-10-18T10:21:47.000Z,33.63
2022-10-18T10:24:14.000Z,33.73
2022-10-18T10:26:45.000Z,34.33
2022-10-18T10:29:12.000Z,34.43
2022-10-18T10:34:16.000Z,33.42
2022-10-18T10:36:41.000Z,36.42
2022-10-18T10:39:13.000Z,37.58
2022-10-18T10:41:45.000Z,37.8
2022-10-18T10:44:15.000Z,38.65
2022-10-18T10:46:39.000Z,36.15
2022-10-18T10:49:08.000Z,32.2
2022-10-18T10:51:34.000Z,30.88
2022-10-18T10:53:59.000Z,30.3
2022-10-18T10:56:25.000Z,29.37
2022-10-18T10:58:54.000Z,27.8
2022-10-18T11:01:19.000Z,27.13
2022-10-18T11:03:46.000Z,26.1
2022-10-18T11:06:11.000Z,26.48
2022-10-18T11:08:38.000Z,25.77
2022-10-18T11:11:08.000Z,25.5
2022-10-18T11:13:34.000Z,26.23
2022-10-18T11:16:02.000Z,25.63
2022-10-18T11:18:28.000Z,26.48
2022-10-18T11:20:56.000Z,27.55
2022-10-18T11:23:29.000Z,26.3
2022-10-18T11:25:56.000Z,28
2022-10-18T11:28:25.000Z,27.65
2022-10-18T11:30:51.000Z,28.55
2022-10-18T11:33:20.000Z,29.05
2022-10-18T11:35:46.000Z,29.77
2022-10-18T11:38:12.000Z,30.25
2022-10-18T11:40:40.000Z,32.03
2022-10-18T11:43:06.000Z,32.17
2022-10-18T11:45:32.000Z,32.33
2022-10-18T11:47:57.000Z,31.75
2022-10-18T11:50:25.000Z,32.1
2022-10-18T11:52:55.000Z,32.17
2022-10-18T11:55:21.000Z,33.28
2022-10-18T11:57:48.000Z,33.83
2022-10-18T12:02:39.000Z,37.8
2022-10-18T12:05:07.000Z,38.13
2022-10-18T12:07:32.000Z,41.03
2022-10-18T12:09:58.000Z,41.8
2022-10-18T12:12:26.000Z,42.63
2022-10-18T12:14:52.000Z,41.83
2022-10-18T12:17:19.000Z,41.23
2022-10-18T12:19:45.000Z,40.28
2022-10-18T12:22:14.000Z,38.58
2022-10-18T12:24:37.000Z,36.68
2022-10-18T12:27:05.000Z,36.2
2022-10-18T12:29:34.000Z,34.8
2022-10-18T12:31:56.000Z,34.55
2022-10-18T12:34:23.000Z,34.75
2022-10-18T12:36:48.000Z,32.95
2022-10-18T12:39:14.000Z,33.83
2022-10-18T12:44:11.000Z,35.2
2022-10-18T12:46:39.000Z,35.35
2022-10-18T12:49:04.000Z,35.9
2022-10-18T12:51:31.000Z,35.33
2022-10-18T12:53:57.000Z,35.2
2022-10-18T12:56:24.000Z,35.48
2022-10-18T12:58:52.000Z,38.1
2022-10-18T13:01:17.000Z,38.7
2022-10-18T13:03:42.000Z,38.63
2022-10-18T13:08:39.000Z,40.45
2022-10-18T13:11:09.000Z,42.2
2022-10-18T13:13:35.000Z,45.98
2022-10-18T13:16:02.000Z,47.8
2022-10-18T13:18:30.000Z,50.33
2022-10-18T13:20:57.000Z,49.3
2022-10-18T13:23:23.000Z,52.43
2022-10-18T13:25:54.000Z,53.7
2022-10-18T13:28:18.000Z,52.2
2022-10-18T13:30:47.000Z,54.3
2022-10-18T13:33:14.000Z,54.67
2022-10-18T13:35:44.000Z,58.92
2022-10-18T13:38:10.000Z,56.77
2022-10-18T13:40:36.000Z,58.63
2022-10-18T13:43:02.000Z,58.52
2022-10-18T13:47:54.000Z,60
2022-10-18T13:52:46.000Z,58.87
2022-10-18T13:55:14.000Z,59.37
2022-10-18T13:57:38.000Z,58.08
2022-10-18T14:00:15.000Z,59.25
2022-10-18T14:02:37.000Z,61.7
2022-10-18T14:05:04.000Z,62.8
2022-10-18T14:07:30.000Z,60.6
2022-10-18T14:09:57.000Z,61.6
2022-10-18T14:12:23.000Z,61.35
2022-10-18T14:14:54.000Z,61.48
2022-10-18T14:17:22.000Z,61.35
2022-10-18T14:19:48.000Z,62.55
2022-10-18T14:22:13.000Z,60.6
2022-10-18T14:24:40.000Z,61.57
2022-10-18T14:27:05.000Z,62.53
2022-10-18T14:29:31.000Z,62.15
2022-10-18T14:31:56.000Z,62.73
2022-10-18T14:34:22.000Z,63.5
2022-10-18T14:36:47.000Z,60.5
2022-10-18T14:39:13.000Z,62.23
2022-10-18T14:41:42.000Z,64.87
2022-10-18T14:44:09.000Z,62.53
2022-10-18T14:46:34.000Z,64.8
2022-10-18T14:49:01.000Z,64.27
2022-10-18T14:51:25.000Z,63
2022-10-18T14:53:52.000Z,62.7
2022-10-18T14:56:17.000Z,63.1
2022-10-18T14:58:43.000Z,60.78
2022-10-18T15:01:09.000Z,62.73
2022-10-18T15:03:35.000Z,61.6
2022-10-18T15:06:02.000Z,63.87
2022-10-18T15:08:31.000Z,62.6
2022-10-18T15:10:56.000Z,62.2
2022-10-18T15:13:22.000Z,62.83
2022-10-18T15:15:48.000Z,61.73
2022-10-18T15:18:15.000Z,61.93
2022-10-18T15:20:42.000Z,61.42
2022-10-18T15:23:09.000Z,61.93
2022-10-18T15:25:34.000Z,61.77
2022-10-18T15:30:31.000Z,59.05
2022-10-18T15:32:51.000Z,60.38
2022-10-18T15:35:18.000Z,57.77
2022-10-18T15:37:43.000Z,57.03
2022-10-18T15:40:14.000Z,57.55
2022-10-18T15:42:35.000Z,57.98
2022-10-18T15:45:05.000Z,56.13
2022-10-18T15:47:28.000Z,57.05
2022-10-18T15:49:54.000Z,56
2022-10-18T15:52:19.000Z,56.3
2022-10-18T15:57:10.000Z,55.8
2022-10-18T15:59:37.000Z,55.12
2022-10-18T16:02:03.000Z,55.9
2022-10-18T16:04:28.000Z,54.2
2022-10-18T16:06:54.000Z,55.4
2022-10-18T16:09:20.000Z,53.83
2022-10-18T16:11:50.000Z,54.18
2022-10-18T16:14:13.000Z,52.5
2022-10-18T16:16:40.000Z,52.78
2022-10-18T16:19:06.000Z,51.53
2022-10-18T16:21:31.000Z,52.17
2022-10-18T16:23:56.000Z,51.83
2022-10-18T16:26:22.000Z,53.45
2022-10-18T16:28:48.000Z,53.93
2022-10-18T16:33:40.000Z,51.55
2022-10-18T16:36:07.000Z,52.33
2022-10-18T16:38:32.000Z,53.15
2022-10-18T16:40:58.000Z,53.55
2022-10-18T16:43:24.000Z,54.4
2022-10-18T16:45:53.000Z,53.87
2022-10-18T16:48:18.000Z,52.08
2022-10-18T16:50:45.000Z,52.7
2022-10-18T16:53:09.000Z,55.08
2022-10-18T16:55:34.000Z,54.63
2022-10-18T16:57:59.000Z,53.53
2022-10-18T17:00:25.000Z,54.83
2022-10-18T17:02:51.000Z,55.37
2022-10-18T17:05:17.000Z,54.43
2022-10-18T17:07:43.000Z,53.8
2022-10-18T17:10:12.000Z,54.75
2022-10-18T17:12:35.000Z,54.58
2022-10-18T17:15:03.000Z,53.13
2022-10-18T17:17:27.000Z,52.43
2022-10-18T17:19:53.000Z,52.78
2022-10-18T17:22:19.000Z,53.75
2022-10-18T17:24:45.000Z,53.95
2022-10-18T17:27:11.000Z,54.63
2022-10-18T17:29:39.000Z,54.23
2022-10-18T17:32:04.000Z,54.1
2022-10-18T17:34:28.000Z,54.13
2022-10-18T17:36:55.000Z,54.23
2022-10-18T17:39:20.000Z,54.93
2022-10-18T17:41:48.000Z,53.75
2022-10-18T17:44:15.000Z,55.1
2022-10-18T17:46:38.000Z,56.13
2022-10-18T17:49:06.000Z,55.73
2022-10-18T17:51:30.000Z,57.5
2022-10-18T17:53:56.000Z,57.33
2022-10-18T17:56:22.000Z,56.58
2022-10-18T17:58:50.000Z,55.5
2022-10-18T18:01:17.000Z,55.65
2022-10-18T18:03:42.000Z,54.7
2022-10-18T18:06:08.000Z,53
2022-10-18T18:08:34.000Z,53.17
2022-10-18T18:11:00.000Z,51.55
2022-10-18T18:13:26.000Z,52.33
2022-10-18T18:15:54.000Z,52.2
2022-10-18T18:18:18.000Z,50.87
2022-10-18T18:20:44.000Z,52.3
2022-10-18T18:23:10.000Z,52.1
2022-10-18T18:25:36.000Z,51.63
2022-10-18T18:28:03.000Z,51.93
2022-10-18T18:30:28.000Z,51.5
2022-10-18T18:32:53.000Z,49.6
2022-10-18T18:35:19.000Z,50.63
2022-10-18T18:37:46.000Z,49.4
2022-10-18T18:40:14.000Z,49.33
2022-10-18T18:42:38.000Z,48.3
2022-10-18T18:45:08.000Z,47.98
2022-10-18T18:47:30.000Z,49.48
2022-10-18T18:49:55.000Z,49.17
2022-10-18T18:52:21.000Z,50.47
2022-10-18T18:54:47.000Z,50.15
2022-10-18T18:59:39.000Z,50.78
2022-10-18T19:02:05.000Z,51.8
2022-10-18T19:04:30.000Z,50.92
2022-10-18T19:06:56.000Z,51.85
2022-10-18T19:09:24.000Z,51.35
2022-10-18T19:11:50.000Z,51.13
2022-10-18T19:14:15.000Z,51.23
2022-10-18T19:16:41.000Z,50.47
2022-10-18T19:19:06.000Z,51.13
2022-10-18T19:21:33.000Z,50.35
2022-10-18T19:23:58.000Z,50.08
2022-10-18T19:26:25.000Z,48.65
2022-10-18T19:28:51.000Z,49.6
2022-10-18T19:31:18.000Z,49.65
2022-10-18T19:33:41.000Z,48
2022-10-18T19:36:08.000Z,49.13
2022-10-18T19:38:34.000Z,49.13
2022-10-18T19:41:00.000Z,48.02
2022-10-18T19:43:26.000Z,48.75
2022-10-18T19:45:53.000Z,48.78
2022-10-18T19:48:19.000Z,48.68
2022-10-18T19:50:53.000Z,49.27
2022-10-18T19:53:10.000Z,48.73
2022-10-18T19:55:36.000Z,50.5
2022-10-18T19:58:01.000Z,50.6
2022-10-18T20:00:33.000Z,50.58
2022-10-18T20:02:53.000Z,49.73
2022-10-18T20:05:19.000Z,49.23
2022-10-18T20:07:45.000Z,49.85
2022-10-18T20:10:13.000Z,51.08
2022-10-18T20:12:38.000Z,49.7
2022-10-18T20:15:07.000Z,50.83
2022-10-18T20:17:30.000Z,50.08
2022-10-18T20:19:56.000Z,51.33
2022-10-18T20:22:22.000Z,54.5
2022-10-18T20:24:47.000Z,55.38
2022-10-18T20:27:14.000Z,56.8
2022-10-18T20:29:40.000Z,58.98
2022-10-18T20:32:06.000Z,59.42
2022-10-18T20:34:31.000Z,63
2022-10-18T20:36:58.000Z,63.6
2022-10-18T20:39:22.000Z,65.13
2022-10-18T20:41:48.000Z,67.1
2022-10-18T20:44:15.000Z,64.75
2022-10-18T20:46:41.000Z,66.28
2022-10-18T20:49:08.000Z,65.75
2022-10-18T20:51:34.000Z,65.1
2022-10-18T20:53:59.000Z,65.1
2022-10-18T20:56:25.000Z,63.7
2022-10-18T20:58:50.000Z,63.5
2022-10-18T21:03:43.000Z,63.3
2022-10-18T21:06:09.000Z,63.87
2022-10-18T21:08:35.000Z,64.5
2022-10-18T21:11:02.000Z,63.83
2022-10-18T21:13:27.000Z,64.47
2022-10-18T21:15:54.000Z,63.07
2022-10-18T21:18:19.000Z,63.1
2022-10-18T21:20:44.000Z,62.15
2022-10-18T21:23:11.000Z,62.43
2022-10-18T21:25:40.000Z,59.5
2022-10-18T21:28:03.000Z,59.88
2022-10-18T21:30:28.000Z,58.55
2022-10-18T21:32:55.000Z,56.88
2022-10-18T21:35:22.000Z,56.02
2022-10-18T21:37:47.000Z,57.15
2022-10-18T21:40:15.000Z,56.73
2022-10-18T21:42:38.000Z,54.83
2022-10-18T21:45:08.000Z,54.65
2022-10-18T21:47:31.000Z,52.23
2022-10-18T21:49:57.000Z,51.92
2022-10-18T21:52:22.000Z,52.9
2022-10-18T21:54:48.000Z,52.7
2022-10-18T21:57:15.000Z,53.1
2022-10-18T21:59:40.000Z,51.33
2022-10-18T22:02:50.000Z,50.45
2022-10-18T22:04:47.000Z,51.15
2022-10-18T22:06:59.000Z,48.08
2022-10-18T22:09:25.000Z,48.5
2022-10-18T22:11:52.000Z,46.18
2022-10-18T22:14:18.000Z,47.05
2022-10-18T22:16:43.000Z,45.48
2022-10-18T22:19:11.000Z,44.15
2022-10-18T22:21:35.000Z,43.15
2022-10-18T22:24:01.000Z,42.58
2022-10-18T22:26:26.000Z,41.53
2022-10-18T22:28:52.000Z,42.05
2022-10-18T22:31:19.000Z,44.2
2022-10-18T22:33:45.000Z,47.27
2022-10-18T22:36:10.000Z,44.75
2022-10-18T22:38:37.000Z,41.9
2022-10-18T22:43:28.000Z,42.8
2022-10-18T22:45:55.000Z,43.5
2022-10-18T22:48:21.000Z,44.7
2022-10-18T22:50:49.000Z,47.58
2022-10-18T22:53:12.000Z,50.5
2022-10-18T22:55:38.000Z,53
2022-10-18T22:58:04.000Z,55
2022-10-18T23:00:31.000Z,54.95
2022-10-18T23:02:56.000Z,53.6
2022-10-18T23:05:22.000Z,50.92
2022-10-18T23:07:48.000Z,47.93
2022-10-18T23:10:15.000Z,47.53
2022-10-18T23:12:40.000Z,45.73
2022-10-18T23:15:07.000Z,44.9
2022-10-18T23:19:57.000Z,41.97
2022-10-18T23:22:24.000Z,41.53
2022-10-18T23:24:49.000Z,39.9
2022-10-18T23:27:19.000Z,40.67
2022-10-18T23:29:44.000Z,40.73
2022-10-18T23:32:11.000Z,40.67
2022-10-18T23:34:36.000Z,41.15
2022-10-18T23:37:04.000Z,42.95
2022-10-18T23:39:28.000Z,43.8
2022-10-18T23:41:54.000Z,48.42
2022-10-18T23:44:21.000Z,49.35
2022-10-18T23:46:47.000Z,50.48
2022-10-18T23:49:14.000Z,49.5
2022-10-18T23:51:38.000Z,52.03
2022-10-18T23:54:05.000Z,54.3
2022-10-18T23:56:30.000Z,54.95
2022-10-18T23:58:56.000Z,54.95
